Time;durP1;ratioP1;P1;durP2;ratioP2;P2;SDS_P1;SDS_P2;PMS_P1;PMS_P2;Temp;Humidity;BMP_temperature;BMP_pressure;BME280_temperature;BME280_humidity;BME280_pressure;Samples;Min_cycle;Max_cycle;Signal;HPM_P1;HPM_P2
2021/08/05 00:01:29;;;;;;;4.90;2.00;;;;;23.20;100313.40;;;;95196;1180;77156;-54
2021/08/05 00:03:30;;;;;;;6.10;2.20;;;;;23.10;100314.20;;;;95324;1176;84836;-54
2021/08/05 00:05:32;;;;;;;7.00;2.00;;;;;23.14;100316.60;;;;95225;1180;99972;-54
2021/08/05 00:07:33;;;;;;;7.40;2.10;;;;;23.16;100318.80;;;;95230;1180;94047;-55
2021/08/05 00:09:35;;;;;;;6.30;2.20;;;;;23.10;100322.20;;;;95281;1176;84200;-54
2021/08/05 00:11:36;;;;;;;6.00;2.00;;;;;23.10;100316.20;;;;95232;1180;76242;-50
2021/08/05 00:13:37;;;;;;;8.20;2.70;;;;;23.10;100314.60;;;;95318;1180;83824;-50
2021/08/05 00:15:39;;;;;;;5.20;1.90;;;;;23.10;100318.00;;;;95273;1179;101100;-55
2021/08/05 00:17:40;;;;;;;5.10;2.10;;;;;23.10;100314.80;;;;95203;1180;94105;-55
2021/08/05 00:19:42;;;;;;;6.10;2.20;;;;;23.10;100315.40;;;;95237;1176;84092;-55
2021/08/05 00:21:44;;;;;;;5.90;1.80;;;;;23.10;100310.20;;;;95246;1180;76298;-54
2021/08/05 00:23:45;;;;;;;8.30;2.40;;;;;23.04;100306.00;;;;95285;1179;83965;-54
2021/08/05 00:25:46;;;;;;;5.80;2.20;;;;;22.56;100301.60;;;;95297;1180;101394;-55
2021/08/05 00:27:48;;;;;;;6.20;2.00;;;;;22.30;100306.00;;;;95309;1176;94493;-55
2021/08/05 00:29:49;;;;;;;4.80;2.00;;;;;22.42;100302.60;;;;95306;1180;85119;-54
2021/08/05 00:31:51;;;;;;;7.50;2.70;;;;;22.70;100304.60;;;;95290;1177;77655;-53
2021/08/05 00:33:52;;;;;;;7.40;2.70;;;;;22.24;100301.60;;;;95224;1180;84895;-54
2021/08/05 00:35:54;;;;;;;5.00;1.60;;;;;22.06;100301.60;;;;95221;1176;100616;-50
2021/08/05 00:37:55;;;;;;;6.20;2.10;;;;;22.40;100297.60;;;;95315;1180;92419;-51
2021/08/05 00:39:57;;;;;;;5.30;1.70;;;;;22.74;100293.20;;;;95270;1176;85223;-50
2021/08/05 00:41:59;;;;;;;5.20;1.80;;;;;22.88;100291.00;;;;95275;1180;76234;-54
2021/08/05 00:44:02;;;;;;;9.20;1.80;;;;;22.96;100286.80;;;;95290;1180;83905;-54
2021/08/05 00:46:04;;;;;;;9.60;2.10;;;;;23.00;100288.20;;;;95217;1176;100709;-55
2021/08/05 00:48:05;;;;;;;8.20;1.80;;;;;23.00;100290.40;;;;95292;1179;93959;-54
2021/08/05 00:50:07;;;;;;;5.60;1.70;;;;;23.00;100286.00;;;;95151;1180;86376;-51
2021/08/05 00:52:09;;;;;;;6.50;1.70;;;;;23.00;100282.40;;;;95301;1176;76795;-51
2021/08/05 00:54:10;;;;;;;6.10;1.90;;;;;22.90;100284.00;;;;95294;1180;84682;-50
2021/08/05 00:56:12;;;;;;;8.90;2.20;;;;;22.58;100280.40;;;;95313;1180;99977;-50
2021/08/05 00:58:13;;;;;;;5.70;1.60;;;;;22.32;100283.00;;;;95298;1180;93835;-51
2021/08/05 01:00:15;;;;;;;6.70;1.80;;;;;22.60;100279.60;;;;95267;1180;83960;-54
2021/08/05 01:02:22;;;;;;;8.00;2.10;;;;;22.78;100283.60;;;;95218;1180;76431;-54
2021/08/05 01:04:23;;;;;;;6.10;2.20;;;;;22.58;100282.00;;;;95315;1180;83980;-54
2021/08/05 01:06:36;;;;;;;7.70;2.50;;;;;22.10;100276.40;;;;95163;1176;99926;-54
2021/08/05 01:08:38;;;;;;;9.20;2.90;;;;;21.62;100282.20;;;;95230;1180;93965;-55
2021/08/05 01:10:47;;;;;;;6.50;1.80;;;;;21.66;100280.00;;;;95145;1176;85211;-55
2021/08/05 01:12:53;;;;;;;8.70;2.60;;;;;21.78;100275.20;;;;95276;1180;77376;-54
2021/08/05 01:15:05;;;;;;;8.00;2.20;;;;;21.80;100272.40;;;;95288;1180;83823;-53
2021/08/05 01:17:08;;;;;;;8.30;2.40;;;;;21.70;100271.40;;;;95305;1180;99847;-54
2021/08/05 01:19:27;;;;;;;8.30;2.80;;;;;21.70;100273.80;;;;95283;1180;93195;-54
2021/08/05 01:21:38;;;;;;;9.60;2.80;;;;;21.80;100270.20;;;;95274;1180;83712;-54
2021/08/05 01:23:42;;;;;;;8.30;2.40;;;;;21.62;100271.80;;;;95304;1180;76573;-54
2021/08/05 01:25:43;;;;;;;6.00;2.10;;;;;21.60;100265.60;;;;95279;1177;84899;-55
2021/08/05 01:27:45;;;;;;;6.30;2.30;;;;;21.50;100269.00;;;;95291;1180;101380;-55
2021/08/05 01:29:46;;;;;;;7.50;1.90;;;;;21.50;100272.80;;;;95281;1176;92411;-54
2021/08/05 01:31:49;;;;;;;6.10;1.90;;;;;21.80;100267.60;;;;95196;1177;84309;-55
2021/08/05 01:33:51;;;;;;;4.80;1.90;;;;;21.80;100272.00;;;;95292;1177;76622;-54
2021/08/05 01:35:52;;;;;;;5.30;1.40;;;;;22.14;100267.80;;;;95221;1180;84738;-55
2021/08/05 01:37:54;;;;;;;5.70;1.90;;;;;22.40;100265.40;;;;95186;1177;100398;-55
2021/08/05 01:39:55;;;;;;;5.60;1.90;;;;;22.44;100263.60;;;;95137;1183;92449;-54
2021/08/05 01:41:59;;;;;;;4.40;1.40;;;;;22.50;100262.20;;;;95172;1177;84235;-49
2021/08/05 01:44:01;;;;;;;5.40;1.50;;;;;22.50;100257.20;;;;95120;1183;76134;-50
2021/08/05 01:46:02;;;;;;;5.40;1.80;;;;;22.50;100255.40;;;;95291;1176;83971;-54
2021/08/05 01:48:05;;;;;;;5.90;2.00;;;;;22.50;100253.40;;;;95144;1179;99827;-55
2021/08/05 01:50:07;;;;;;;5.90;2.00;;;;;22.50;100254.60;;;;95263;1176;94037;-54
2021/08/05 01:52:09;;;;;;;7.30;2.00;;;;;22.50;100254.40;;;;95291;1180;84200;-54
2021/08/05 01:54:11;;;;;;;5.40;1.70;;;;;22.50;100254.40;;;;95156;1182;76663;-54
2021/08/05 01:56:12;;;;;;;8.40;2.00;;;;;22.50;100255.00;;;;95249;1176;84634;-53
2021/08/05 01:58:13;;;;;;;5.20;1.80;;;;;22.28;100251.80;;;;95290;1176;99990;-54
2021/08/05 02:00:15;;;;;;;6.30;2.10;;;;;22.00;100253.20;;;;95235;1180;93387;-49
2021/08/05 02:02:16;;;;;;;7.10;1.90;;;;;21.90;100256.60;;;;95273;1180;85133;-50
2021/08/05 02:04:41;;;;;;;7.10;1.70;;;;;22.10;100253.60;;;;95203;1180;77130;-52
2021/08/05 02:06:55;;;;;;;10.30;2.40;;;;;22.00;100255.40;;;;95232;1180;84650;-50
2021/08/05 02:09:00;;;;;;;6.70;2.40;;;;;21.84;100251.00;;;;95280;1179;100928;-52
2021/08/05 02:11:01;;;;;;;9.40;2.30;;;;;21.62;100257.80;;;;95209;1180;93809;-50
2021/08/05 02:13:06;;;;;;;10.00;2.30;;;;;21.66;100255.60;;;;95257;1180;84235;-54
2021/08/05 02:15:08;;;;;;;8.50;2.20;;;;;21.60;100253.40;;;;95190;1180;76649;-50
2021/08/05 02:17:10;;;;;;;7.40;1.90;;;;;21.50;100255.60;;;;95184;1180;84927;-51
2021/08/05 02:19:13;;;;;;;4.00;1.50;;;;;21.50;100255.80;;;;95093;1179;101292;-55
2021/08/05 02:21:15;;;;;;;7.40;2.30;;;;;21.90;100258.60;;;;95235;1179;93282;-52
2021/08/05 02:23:17;;;;;;;6.70;1.70;;;;;21.80;100257.20;;;;95134;1176;85198;-51
2021/08/05 02:25:19;;;;;;;5.80;1.60;;;;;22.10;100258.40;;;;95283;1180;76415;-55
2021/08/05 02:27:20;;;;;;;5.70;1.50;;;;;22.24;100258.00;;;;95187;1179;84030;-52
2021/08/05 02:29:22;;;;;;;5.30;1.40;;;;;22.20;100257.20;;;;95185;1176;102135;-51
2021/08/05 02:31:23;;;;;;;4.40;1.30;;;;;22.30;100267.20;;;;95195;1179;93289;-55
2021/08/05 02:33:26;;;;;;;5.80;1.90;;;;;22.38;100265.40;;;;95169;1177;85129;-54
2021/08/05 02:35:27;;;;;;;7.70;1.50;;;;;22.40;100264.40;;;;95193;1180;77467;-51
2021/08/05 02:37:28;;;;;;;6.50;1.90;;;;;22.40;100267.00;;;;95283;1180;83950;-52
2021/08/05 02:39:31;;;;;;;4.50;1.40;;;;;22.40;100269.20;;;;95283;1180;102162;-50
2021/08/05 02:41:33;;;;;;;7.10;2.40;;;;;22.40;100271.00;;;;95377;1179;93857;-50
2021/08/05 02:43:34;;;;;;;5.90;1.90;;;;;22.40;100271.80;;;;95316;1178;85142;-49
2021/08/05 02:45:39;;;;;;;7.10;1.30;;;;;22.40;100274.20;;;;95332;1180;76143;-50
2021/08/05 02:47:40;;;;;;;6.50;1.70;;;;;22.38;100276.60;;;;95336;1176;84798;-50
2021/08/05 02:49:42;;;;;;;4.70;1.80;;;;;22.30;100271.20;;;;95290;1180;101931;-47
2021/08/05 02:51:44;;;;;;;5.50;1.60;;;;;22.40;100273.80;;;;95228;1177;94044;-50
2021/08/05 02:53:46;;;;;;;6.20;1.50;;;;;22.40;100272.00;;;;95350;1176;84927;-49
2021/08/05 02:55:47;;;;;;;5.80;1.70;;;;;22.40;100268.40;;;;95224;1179;76395;-55
2021/08/05 02:57:52;;;;;;;6.80;1.90;;;;;22.40;100264.80;;;;95230;1176;83585;-55
2021/08/05 02:59:53;;;;;;;6.10;1.80;;;;;22.40;100263.60;;;;95363;1176;102027;-54
2021/08/05 03:01:54;;;;;;;5.90;1.70;;;;;22.40;100263.60;;;;95240;1176;92974;-50
2021/08/05 03:03:56;;;;;;;4.90;1.50;;;;;22.40;100262.80;;;;95329;1180;84257;-48
2021/08/05 03:05:57;;;;;;;4.70;1.50;;;;;22.40;100263.20;;;;95280;1180;77370;-54
2021/08/05 03:07:59;;;;;;;5.90;1.70;;;;;22.40;100263.20;;;;95277;1176;84716;-54
2021/08/05 03:10:00;;;;;;;6.00;2.00;;;;;22.40;100260.80;;;;95236;1176;101982;-57
2021/08/05 03:12:02;;;;;;;5.90;1.70;;;;;22.38;100263.20;;;;95305;1180;93952;-54
2021/08/05 03:14:03;;;;;;;7.00;1.80;;;;;22.40;100259.20;;;;95259;1180;84199;-55
2021/08/05 03:16:05;;;;;;;5.50;1.60;;;;;22.40;100258.60;;;;95257;1180;76483;-55
2021/08/05 03:18:07;;;;;;;5.60;2.20;;;;;22.40;100260.60;;;;95240;1180;83888;-57
2021/08/05 03:20:09;;;;;;;7.40;1.80;;;;;22.40;100256.20;;;;95305;1176;101488;-50
2021/08/05 03:22:11;;;;;;;7.60;2.20;;;;;22.30;100255.80;;;;95255;1180;94066;-50
2021/08/05 03:24:12;;;;;;;6.70;1.80;;;;;22.06;100247.80;;;;95293;1180;84849;-51
2021/08/05 03:26:14;;;;;;;6.00;1.80;;;;;22.18;100248.40;;;;95237;1176;76729;-51
2021/08/05 03:28:15;;;;;;;7.50;2.10;;;;;22.20;100243.60;;;;95214;1180;84619;-51
2021/08/05 03:30:17;;;;;;;8.50;2.90;;;;;22.20;100242.00;;;;95225;1176;101661;-49
2021/08/05 03:32:18;;;;;;;7.10;2.20;;;;;22.00;100238.60;;;;95136;1176;93902;-49
2021/08/05 03:34:19;;;;;;;6.50;2.20;;;;;22.14;100236.80;;;;95178;1176;83762;-50
2021/08/05 03:36:21;;;;;;;6.80;2.10;;;;;22.20;100232.20;;;;95242;1177;76690;-52
2021/08/05 03:38:22;;;;;;;5.50;1.80;;;;;22.30;100234.40;;;;95351;1180;84832;-51
2021/08/05 03:40:24;;;;;;;8.70;2.40;;;;;22.26;100229.80;;;;95348;1174;102274;-53
2021/08/05 03:42:25;;;;;;;8.80;2.70;;;;;22.30;100232.00;;;;95316;1176;94132;-53
2021/08/05 03:44:27;;;;;;;7.20;2.40;;;;;22.30;100231.20;;;;95317;1180;84893;-53
2021/08/05 03:46:28;;;;;;;7.90;2.40;;;;;22.30;100233.20;;;;95310;1176;76415;-55
2021/08/05 03:48:30;;;;;;;12.70;2.50;;;;;22.30;100233.20;;;;95385;1176;83733;-55
2021/08/05 03:50:31;;;;;;;10.10;2.90;;;;;22.30;100237.60;;;;95318;1176;102099;-51
2021/08/05 03:52:32;;;;;;;8.40;2.90;;;;;22.26;100230.20;;;;95331;1180;93329;-50
2021/08/05 03:54:34;;;;;;;9.90;3.50;;;;;22.00;100230.80;;;;95306;1180;84277;-50
2021/08/05 03:56:35;;;;;;;7.10;2.70;;;;;21.80;100230.20;;;;95282;1180;76402;-50
2021/08/05 03:58:37;;;;;;;9.40;2.60;;;;;21.98;100228.60;;;;95328;1180;84937;-50
2021/08/05 04:00:38;;;;;;;8.40;2.60;;;;;22.12;100230.00;;;;95299;1180;102210;-51
2021/08/05 04:02:40;;;;;;;7.90;3.20;;;;;22.20;100230.60;;;;95325;1180;94036;-51
2021/08/05 04:04:42;;;;;;;8.80;3.20;;;;;22.20;100234.20;;;;95323;1180;84939;-51
2021/08/05 04:06:43;;;;;;;8.20;2.70;;;;;22.20;100234.80;;;;95298;1176;78353;-55
2021/08/05 04:08:45;;;;;;;8.30;2.70;;;;;22.16;100235.00;;;;95352;1176;83813;-55
2021/08/05 04:10:46;;;;;;;7.70;2.80;;;;;22.10;100238.00;;;;95313;1179;102211;-54
2021/08/05 04:12:47;;;;;;;7.70;2.90;;;;;22.20;100234.20;;;;95324;1176;93232;-54
2021/08/05 04:14:49;;;;;;;9.80;3.60;;;;;22.30;100236.80;;;;95282;1180;85130;-54
2021/08/05 04:16:50;;;;;;;8.60;3.00;;;;;22.34;100236.80;;;;95325;1176;76421;-50
2021/08/05 04:18:52;;;;;;;8.20;3.00;;;;;22.20;100230.80;;;;95376;1176;84115;-51
2021/08/05 04:20:53;;;;;;;8.10;3.30;;;;;22.30;100232.00;;;;95326;1179;101217;-55
2021/08/05 04:22:55;;;;;;;8.90;3.60;;;;;22.30;100235.80;;;;95326;1179;92983;-54
2021/08/05 04:24:57;;;;;;;11.70;3.50;;;;;22.30;100238.60;;;;95320;1176;84272;-53
2021/08/05 04:27:01;;;;;;;10.30;4.50;;;;;22.30;100233.60;;;;95325;1176;77486;-54
2021/08/05 04:29:02;;;;;;;12.10;4.80;;;;;22.30;100232.40;;;;95306;1180;84519;-54
2021/08/05 04:31:04;;;;;;;12.20;4.80;;;;;22.30;100227.00;;;;95288;1179;101973;-51
2021/08/05 04:33:05;;;;;;;13.40;5.70;;;;;22.20;100225.00;;;;95344;1179;94079;-51
2021/08/05 04:35:08;;;;;;;17.10;6.80;;;;;22.20;100226.40;;;;95331;1179;85106;-54
2021/08/05 04:37:09;;;;;;;16.50;7.60;;;;;22.14;100226.80;;;;95331;1179;76475;-54
2021/08/05 04:39:11;;;;;;;17.90;8.40;;;;;21.84;100229.40;;;;95334;1176;83999;-54
2021/08/05 04:41:12;;;;;;;17.70;7.70;;;;;21.90;100233.60;;;;95305;1176;101627;-55
2021/08/05 04:43:14;;;;;;;15.80;7.30;;;;;21.90;100233.20;;;;95314;1179;94094;-54
2021/08/05 04:45:15;;;;;;;17.60;7.40;;;;;21.90;100238.20;;;;95303;1180;85096;-55
2021/08/05 04:47:17;;;;;;;14.20;6.80;;;;;21.90;100232.40;;;;95297;1176;76239;-55
2021/08/05 04:49:18;;;;;;;14.30;6.10;;;;;21.80;100231.00;;;;95340;1176;84273;-54
2021/08/05 04:51:19;;;;;;;12.90;5.80;;;;;21.70;100227.00;;;;95317;1176;101898;-54
2021/08/05 04:53:21;;;;;;;11.10;5.50;;;;;21.70;100230.20;;;;95332;1176;94133;-55
2021/08/05 04:55:22;;;;;;;14.90;5.60;;;;;21.70;100234.40;;;;95291;1179;84889;-50
2021/08/05 04:57:24;;;;;;;12.60;4.80;;;;;21.70;100238.60;;;;95287;1180;76732;-50
2021/08/05 04:59:25;;;;;;;9.70;4.90;;;;;21.60;100239.20;;;;95340;1176;84740;-50
2021/08/05 05:01:27;;;;;;;11.50;5.50;;;;;21.50;100248.20;;;;95319;1176;101887;-56
2021/08/05 05:03:28;;;;;;;10.90;5.40;;;;;21.50;100247.00;;;;95331;1179;94133;-54
2021/08/05 05:05:30;;;;;;;13.30;5.20;;;;;21.34;100240.20;;;;95270;1179;84906;-51
2021/08/05 05:07:32;;;;;;;10.60;4.70;;;;;21.30;100243.40;;;;95286;1176;76180;-52
2021/08/05 05:09:33;;;;;;;10.30;4.90;;;;;21.44;100244.40;;;;95335;1179;84859;-51
2021/08/05 05:11:34;;;;;;;10.50;5.80;;;;;21.50;100244.80;;;;95332;1179;101382;-51
2021/08/05 05:13:36;;;;;;;9.20;4.70;;;;;21.60;100246.00;;;;95342;1179;92846;-51
2021/08/05 05:15:38;;;;;;;11.70;4.80;;;;;21.52;100244.40;;;;95292;1179;83694;-51
2021/08/05 05:17:41;;;;;;;11.50;5.30;;;;;21.60;100244.80;;;;95337;1175;78020;-51
2021/08/05 05:19:42;;;;;;;8.30;3.70;;;;;21.62;100242.60;;;;95352;1180;84873;-51
2021/08/05 05:21:44;;;;;;;10.10;4.50;;;;;21.60;100242.80;;;;95228;1179;101376;-50
2021/08/05 05:23:45;;;;;;;10.40;4.40;;;;;21.60;100234.80;;;;95338;1176;94067;-50
2021/08/05 05:25:47;;;;;;;10.60;4.50;;;;;21.70;100234.40;;;;95272;1179;85055;-50
2021/08/05 05:27:48;;;;;;;10.50;4.00;;;;;21.70;100229.00;;;;95323;1177;76631;-51
2021/08/05 05:29:50;;;;;;;8.60;4.10;;;;;21.70;100228.80;;;;95355;1179;84000;-51
2021/08/05 05:31:54;;;;;;;9.00;3.70;;;;;21.70;100227.20;;;;95375;1179;102183;-51
2021/08/05 05:33:55;;;;;;;9.20;3.80;;;;;21.80;100236.00;;;;95340;1179;92175;-50
2021/08/05 05:35:57;;;;;;;9.80;4.10;;;;;21.80;100235.40;;;;95252;1179;85017;-50
2021/08/05 05:37:58;;;;;;;8.40;3.90;;;;;21.74;100235.40;;;;95298;1175;76409;-50
2021/08/05 05:40:00;;;;;;;9.70;4.40;;;;;21.80;100232.40;;;;95351;1176;83741;-51
2021/08/05 05:42:01;;;;;;;9.80;4.70;;;;;21.80;100229.00;;;;95299;1175;100711;-51
2021/08/05 05:44:03;;;;;;;8.80;4.10;;;;;21.60;100226.00;;;;95332;1179;93242;-50
2021/08/05 05:46:05;;;;;;;8.50;3.70;;;;;21.44;100228.60;;;;95301;1176;83969;-55
2021/08/05 05:48:08;;;;;;;10.20;4.80;;;;;21.34;100224.80;;;;95325;1179;78829;-54
2021/08/05 05:50:10;;;;;;;11.10;4.30;;;;;21.40;100223.60;;;;95334;1179;83987;-54
2021/08/05 05:52:12;;;;;;;9.40;4.60;;;;;21.40;100224.80;;;;95308;1177;101010;-54
2021/08/05 05:54:13;;;;;;;10.70;4.60;;;;;21.40;100226.00;;;;95332;1177;92387;-54
2021/08/05 05:56:15;;;;;;;10.10;4.30;;;;;21.40;100221.60;;;;95302;1179;85573;-55
2021/08/05 05:58:16;;;;;;;9.60;3.60;;;;;21.50;100225.40;;;;95341;1180;76162;-55
2021/08/05 06:00:18;;;;;;;9.20;4.10;;;;;21.58;100227.40;;;;95350;1176;83889;-50
2021/08/05 06:02:19;;;;;;;10.30;4.30;;;;;21.60;100225.20;;;;95274;1179;101412;-50
2021/08/05 06:04:20;;;;;;;10.70;4.60;;;;;21.60;100227.40;;;;95329;1179;93044;-50
2021/08/05 06:06:22;;;;;;;12.70;5.00;;;;;21.60;100219.20;;;;95285;1179;83960;-49
2021/08/05 06:08:23;;;;;;;11.90;4.90;;;;;21.48;100215.40;;;;95315;1176;76631;-50
2021/08/05 06:10:25;;;;;;;11.40;5.00;;;;;21.40;100211.20;;;;95328;1179;83882;-49
2021/08/05 06:12:26;;;;;;;10.00;4.90;;;;;21.40;100212.40;;;;95339;1176;101941;-49
2021/08/05 06:14:28;;;;;;;11.80;5.60;;;;;21.42;100212.00;;;;95324;1179;94123;-50
2021/08/05 06:16:29;;;;;;;10.90;5.90;;;;;21.40;100213.80;;;;95312;1176;83918;-49
2021/08/05 06:18:31;;;;;;;12.70;5.00;;;;;21.30;100217.40;;;;95351;1176;76377;-50
2021/08/05 06:20:32;;;;;;;10.60;4.40;;;;;21.40;100212.20;;;;95291;1176;84640;-55
2021/08/05 06:22:33;;;;;;;10.40;5.20;;;;;21.50;100210.80;;;;95255;1177;100972;-55
2021/08/05 06:24:35;;;;;;;10.60;5.30;;;;;21.54;100211.00;;;;95290;1179;94179;-55
2021/08/05 06:26:36;;;;;;;10.60;5.60;;;;;21.60;100213.80;;;;95286;1176;84216;-51
2021/08/05 06:28:38;;;;;;;11.20;5.40;;;;;21.52;100207.20;;;;95328;1175;76401;-49
2021/08/05 06:30:39;;;;;;;11.70;5.20;;;;;21.60;100204.00;;;;95316;1179;83804;-50
2021/08/05 06:32:40;;;;;;;15.00;5.30;;;;;21.60;100202.40;;;;95331;1179;101825;-50
2021/08/05 06:34:42;;;;;;;10.10;4.70;;;;;21.54;100200.40;;;;95343;1179;93821;-49
2021/08/05 06:36:43;;;;;;;11.00;5.00;;;;;21.60;100194.00;;;;95314;1176;84867;-51
2021/08/05 06:38:45;;;;;;;9.90;5.30;;;;;21.66;100195.60;;;;95334;1176;76650;-50
2021/08/05 06:40:47;;;;;;;11.00;5.50;;;;;21.66;100195.60;;;;95288;1179;84055;-50
2021/08/05 06:42:48;;;;;;;12.20;5.20;;;;;21.50;100191.60;;;;95289;1179;102177;-50
2021/08/05 06:44:49;;;;;;;12.50;5.30;;;;;21.50;100193.20;;;;95337;1179;94067;-50
2021/08/05 06:46:51;;;;;;;11.20;5.10;;;;;21.60;100187.40;;;;95339;1179;85696;-51
2021/08/05 06:48:53;;;;;;;10.90;4.90;;;;;21.70;100186.40;;;;95321;1179;76654;-51
2021/08/05 06:50:54;;;;;;;11.80;5.10;;;;;21.70;100187.60;;;;95290;1179;84861;-50
2021/08/05 06:52:55;;;;;;;12.10;4.90;;;;;21.64;100192.00;;;;95320;1175;100693;-49
2021/08/05 06:54:58;;;;;;;11.60;5.10;;;;;21.62;100187.80;;;;95330;1179;93921;-50
2021/08/05 06:56:59;;;;;;;13.90;5.00;;;;;21.70;100186.60;;;;95265;1179;83976;-50
2021/08/05 06:59:01;;;;;;;9.20;4.60;;;;;21.70;100186.20;;;;95313;1179;76388;-50
2021/08/05 07:01:03;;;;;;;9.90;4.50;;;;;21.80;100181.40;;;;95338;1179;84885;-50
2021/08/05 07:03:04;;;;;;;12.20;4.50;;;;;21.80;100185.40;;;;95310;1180;101596;-50
2021/08/05 07:05:09;;;;;;;8.60;4.00;;;;;21.90;100185.00;;;;95299;1175;93887;-54
2021/08/05 07:07:10;;;;;;;9.50;4.60;;;;;22.00;100179.40;;;;95156;1178;84030;-55
2021/08/05 07:09:12;;;;;;;12.00;4.70;;;;;21.86;100175.40;;;;95321;1179;77572;-55
2021/08/05 07:11:13;;;;;;;10.30;4.00;;;;;21.60;100182.80;;;;95310;1179;84877;-54
2021/08/05 07:13:15;;;;;;;9.00;3.80;;;;;21.70;100177.20;;;;95468;1172;100714;-55
2021/08/05 07:15:16;;;;;;;10.80;3.80;;;;;21.60;100179.20;;;;95459;1172;93467;-51
2021/08/05 07:17:18;;;;;;;11.10;4.60;;;;;21.56;100175.20;;;;95495;1173;84017;-50
2021/08/05 07:19:19;;;;;;;12.90;3.90;;;;;21.68;100173.40;;;;95465;1176;77558;-50
2021/08/05 07:21:21;;;;;;;11.40;4.10;;;;;21.70;100172.40;;;;95479;1171;83912;-49
2021/08/05 07:23:22;;;;;;;12.90;4.00;;;;;21.60;100170.40;;;;95460;1176;101084;-50
2021/08/05 07:25:24;;;;;;;12.20;4.60;;;;;21.50;100174.20;;;;95429;1176;93951;-50
2021/08/05 07:27:25;;;;;;;8.50;3.60;;;;;21.50;100168.80;;;;95437;1176;85438;-50
2021/08/05 07:29:28;;;;;;;14.30;4.40;;;;;21.50;100170.60;;;;95423;1172;77493;-51
2021/08/05 07:31:30;;;;;;;10.70;4.40;;;;;21.70;100169.00;;;;95444;1172;83725;-51
2021/08/05 07:33:32;;;;;;;10.90;3.90;;;;;21.70;100171.40;;;;95455;1173;101533;-50
2021/08/05 07:35:33;;;;;;;11.60;4.00;;;;;21.62;100166.40;;;;95404;1172;92720;-50
2021/08/05 07:37:35;;;;;;;8.60;3.50;;;;;21.78;100163.00;;;;95439;1176;84236;-50
2021/08/05 07:39:36;;;;;;;8.40;3.90;;;;;21.80;100164.60;;;;95417;1175;76388;-49
2021/08/05 07:41:38;;;;;;;11.80;3.80;;;;;21.80;100163.60;;;;95432;1176;83714;-51
2021/08/05 07:43:40;;;;;;;8.90;3.60;;;;;21.80;100159.60;;;;95460;1176;101997;-50
2021/08/05 07:45:41;;;;;;;7.60;3.70;;;;;21.84;100160.60;;;;95415;1176;94041;-51
2021/08/05 07:47:43;;;;;;;10.20;4.10;;;;;21.80;100162.00;;;;95428;1173;83956;-50
2021/08/05 07:49:45;;;;;;;10.10;3.90;;;;;21.60;100159.40;;;;95445;1172;77474;-54
2021/08/05 07:51:46;;;;;;;9.90;3.50;;;;;21.60;100154.60;;;;95424;1176;83988;-55
2021/08/05 07:53:48;;;;;;;9.30;3.60;;;;;21.60;100154.40;;;;95457;1173;101415;-55
2021/08/05 07:55:49;;;;;;;11.70;3.60;;;;;21.60;100154.40;;;;95459;1172;93164;-50
2021/08/05 07:57:52;;;;;;;7.50;3.50;;;;;21.40;100150.20;;;;95447;1172;83949;-51
2021/08/05 07:59:53;;;;;;;10.30;4.20;;;;;21.60;100147.80;;;;95471;1172;76667;-51
2021/08/05 08:01:54;;;;;;;11.20;3.80;;;;;21.50;100146.00;;;;95333;1176;83976;-54
2021/08/05 08:03:56;;;;;;;7.30;3.30;;;;;21.72;100143.00;;;;95465;1176;102182;-50
2021/08/05 08:05:57;;;;;;;10.10;3.70;;;;;22.08;100145.40;;;;95475;1176;94380;-47
2021/08/05 08:07:59;;;;;;;7.80;2.90;;;;;22.40;100143.60;;;;95470;1173;84949;-51
2021/08/05 08:10:02;;;;;;;7.30;3.30;;;;;22.40;100143.40;;;;95465;1172;76344;-49
2021/08/05 08:12:03;;;;;;;7.90;3.30;;;;;22.48;100144.60;;;;95455;1172;84719;-48
2021/08/05 08:14:05;;;;;;;9.40;3.10;;;;;22.50;100142.40;;;;95496;1176;101916;-49
2021/08/05 08:16:06;;;;;;;10.50;3.30;;;;;22.54;100139.40;;;;95469;1176;94042;-44
2021/08/05 08:18:07;;;;;;;8.70;3.00;;;;;22.56;100136.20;;;;95464;1176;84854;-48
2021/08/05 08:20:13;;;;;;;10.80;2.90;;;;;22.60;100134.00;;;;95440;1176;77481;-49
2021/08/05 08:22:14;;;;;;;8.10;3.10;;;;;22.70;100137.20;;;;95340;1172;84627;-49
2021/08/05 08:24:16;;;;;;;8.50;2.70;;;;;22.70;100135.80;;;;95419;1176;101324;-47
2021/08/05 08:26:17;;;;;;;7.00;2.80;;;;;22.70;100139.80;;;;95371;1172;92807;-49
2021/08/05 08:28:19;;;;;;;8.80;2.60;;;;;22.70;100137.80;;;;95381;1172;85574;-49
2021/08/05 08:30:21;;;;;;;7.00;2.90;;;;;22.70;100141.00;;;;95425;1173;76625;-50
2021/08/05 08:32:23;;;;;;;8.40;2.50;;;;;22.80;100137.00;;;;95452;1172;85545;-44
2021/08/05 08:34:24;;;;;;;6.60;2.60;;;;;22.80;100136.00;;;;95435;1176;101171;-50
2021/08/05 08:36:26;;;;;;;8.60;2.50;;;;;22.80;100128.60;;;;95424;1176;92991;-49
2021/08/05 08:38:27;;;;;;;10.80;3.00;;;;;22.90;100125.00;;;;95443;1172;84692;-48
2021/08/05 08:40:29;;;;;;;9.70;3.00;;;;;22.90;100122.00;;;;95385;1176;76131;-48
2021/08/05 08:42:31;;;;;;;7.70;2.20;;;;;22.92;100122.80;;;;95428;1176;83515;-45
2021/08/05 08:44:33;;;;;;;7.70;2.70;;;;;23.00;100125.20;;;;95423;1176;100459;-46
2021/08/05 08:46:35;;;;;;;7.00;2.90;;;;;22.92;100124.40;;;;95344;1176;93953;-44
2021/08/05 08:48:36;;;;;;;8.80;2.50;;;;;23.00;100126.00;;;;95383;1172;84035;-48
2021/08/05 08:50:38;;;;;;;13.00;2.70;;;;;23.00;100125.00;;;;95413;1176;76620;-44
2021/08/05 08:52:41;;;;;;;8.30;2.60;;;;;23.00;100122.00;;;;95394;1176;84876;-46
2021/08/05 08:54:44;;;;;;;7.10;2.40;;;;;22.90;100122.60;;;;95428;1177;100262;-45
2021/08/05 08:56:47;;;;;;;8.60;2.40;;;;;22.80;100120.60;;;;95370;1173;93227;-45
2021/08/05 08:58:49;;;;;;;6.80;2.20;;;;;22.80;100125.60;;;;95387;1172;83953;-45
2021/08/05 09:00:51;;;;;;;8.90;2.80;;;;;22.80;100125.80;;;;95421;1176;77556;-45
2021/08/05 09:02:54;;;;;;;7.30;2.80;;;;;22.80;100124.80;;;;95423;1176;84906;-46
2021/08/05 09:04:56;;;;;;;8.70;2.80;;;;;22.80;100124.40;;;;95428;1172;100466;-45
2021/08/05 09:06:58;;;;;;;7.70;2.80;;;;;22.80;100123.40;;;;95415;1176;93191;-50
2021/08/05 09:08:59;;;;;;;7.50;2.40;;;;;22.74;100121.40;;;;95401;1176;84209;-49
2021/08/05 09:11:01;;;;;;;7.60;2.60;;;;;22.76;100119.40;;;;95432;1176;77505;-45
2021/08/05 09:13:02;;;;;;;6.40;2.50;;;;;22.80;100116.60;;;;95433;1176;84870;-46
2021/08/05 09:15:05;;;;;;;11.00;3.30;;;;;22.80;100112.40;;;;95432;1176;101545;-46
2021/08/05 09:17:31;;;;;;;8.80;2.60;;;;;22.80;100113.40;;;;95425;1176;93455;-45
2021/08/05 09:19:39;;;;;;;12.30;4.10;;;;;22.80;100105.00;;;;95396;1176;85116;-46
2021/08/05 09:22:07;;;;;;;18.60;5.70;;;;;22.80;100101.20;;;;95375;1176;77842;-46
2021/08/05 09:24:09;;;;;;;21.70;5.40;;;;;22.80;100102.40;;;;95391;1173;83987;-46
2021/08/05 09:26:50;;;;;;;22.60;5.70;;;;;22.80;100098.00;;;;95450;1173;101655;-51
2021/08/05 09:29:08;;;;;;;20.20;5.70;;;;;22.80;100099.00;;;;95204;1179;93060;-50
2021/08/05 09:31:16;;;;;;;18.00;5.20;;;;;22.80;100097.40;;;;95129;1180;83755;-50
2021/08/05 09:33:17;;;;;;;18.20;4.60;;;;;22.80;100098.40;;;;95273;1179;76448;-50
2021/08/05 09:35:19;;;;;;;20.60;4.40;;;;;22.80;100096.00;;;;95418;1176;83543;-49
2021/08/05 09:37:20;;;;;;;18.20;4.60;;;;;22.90;100096.40;;;;95348;1177;101231;-48
2021/08/05 09:39:26;;;;;;;16.10;4.00;;;;;22.98;100091.80;;;;95427;1176;94365;-50
2021/08/05 09:41:27;;;;;;;14.80;4.10;;;;;23.04;100093.60;;;;95435;1172;84065;-50
2021/08/05 09:43:29;;;;;;;16.00;4.00;;;;;23.10;100099.00;;;;95395;1176;77156;-47
2021/08/05 09:45:34;;;;;;;14.70;3.80;;;;;23.10;100098.40;;;;95417;1175;84042;-47
2021/08/05 09:47:42;;;;;;;13.60;3.70;;;;;23.10;100096.60;;;;95389;1176;101657;-48
2021/08/05 09:49:46;;;;;;;12.30;4.20;;;;;23.10;100100.60;;;;95340;1176;92814;-49
2021/08/05 09:51:58;;;;;;;16.70;4.00;;;;;23.20;100095.20;;;;95261;1175;83936;-48
2021/08/05 09:54:05;;;;;;;11.00;3.20;;;;;23.20;100099.80;;;;95300;1177;78183;-51
2021/08/05 09:56:11;;;;;;;13.60;3.80;;;;;23.20;100100.20;;;;95440;1176;85152;-51
2021/08/05 09:58:12;;;;;;;11.30;3.00;;;;;23.20;100101.00;;;;95438;1172;101697;-51
2021/08/05 10:00:16;;;;;;;9.50;2.90;;;;;23.30;100099.60;;;;95265;1176;93879;-52
2021/08/05 10:02:18;;;;;;;14.20;3.60;;;;;23.30;100091.40;;;;95293;1175;84894;-49